Time;durP1;ratioP1;P1;durP2;ratioP2;P2;SDS_P1;SDS_P2;PMS_P1;PMS_P2;Temp;Humidity;BMP_temperature;BMP_pressure;BME280_temperature;BME280_humidity;BME280_pressure;Samples;Min_cycle;Max_cycle;Signal;HPM_P1;HPM_P2
2023/08/04 07:09:34;;;;;;;;;;;;;;;;;;;;;
2023/08/04 07:36:36;;;;;;;1.83;1.10;;;22.90;99.90;;;;;;5051871;23;20235;-88
2023/08/04 07:39:51;;;;;;;3.23;1.60;;;23.10;99.90;;;;;;4898593;29;20200;-86
2023/08/04 07:42:45;;;;;;;1.57;0.97;;;23.10;99.90;;;;;;4872249;29;20532;-88
2023/08/04 07:45:34;;;;;;;;;;;;;;;;;;;;;
2023/08/04 07:53:25;;;;;;;2.47;1.13;;;22.70;99.90;;;;;;4807049;29;20280;-86
2023/08/04 08:05:31;;;;;;;2.57;1.30;;;22.80;99.90;;;;;;4768937;30;20204;-86
2023/08/04 08:08:33;;;;;;;2.27;1.13;;;22.90;99.90;;;;;;4753950;30;20228;-85
2023/08/04 08:11:45;;;;;;;1.33;0.90;;;23.00;99.90;;;;;;4769220;30;20201;-87
2023/08/04 09:14:49;;;;;;;2.78;0.80;;;26.50;99.90;;;;;;6248798;22;20465;-83
2023/08/04 09:21:44;;;;;;;2.17;0.90;;;26.40;99.90;;;;;;6192913;23;20167;-82
2023/08/04 09:24:32;;;;;;;4.72;1.23;;;26.70;99.90;;;;;;6192573;23;20151;-80
2023/08/04 09:27:30;;;;;;;6.10;1.00;;;26.70;99.90;;;;;;6141910;23;20642;-82
2023/08/04 09:30:37;;;;;;;1.17;0.82;;;26.80;99.90;;;;;;6163264;23;20163;-81
2023/08/04 09:33:56;;;;;;;2.10;1.00;;;26.80;99.90;;;;;;6106987;23;20260;-82
2023/08/04 09:37:00;;;;;;;5.22;0.93;;;26.60;99.90;;;;;;6084874;23;20201;-84
2023/08/04 09:40:03;;;;;;;1.48;0.80;;;26.40;99.90;;;;;;6082966;23;20176;-83
2023/08/04 09:43:00;;;;;;;4.10;1.02;;;26.40;99.90;;;;;;6084731;23;20252;-83
2023/08/04 09:46:05;;;;;;;2.17;0.90;;;26.00;99.90;;;;;;6128885;23;20604;-84
2023/08/04 09:49:06;;;;;;;6.57;1.30;;;25.40;99.90;;;;;;6122004;23;20266;-82
2023/08/04 09:52:18;;;;;;;1.67;1.13;;;25.40;99.90;;;;;;6163140;23;20187;-83
2023/08/04 09:54:53;;;;;;;3.90;1.40;;;25.70;99.90;;;;;;6162007;23;20168;-83
2023/08/04 09:57:59;;;;;;;3.90;1.30;;;25.90;99.90;;;;;;6143298;23;20187;-81
2023/08/04 10:00:59;;;;;;;1.95;1.20;;;26.20;99.90;;;;;;6142379;23;20459;-82
2023/08/04 10:04:42;;;;;;;3.33;1.10;;;26.30;99.90;;;;;;6159050;23;20549;-82
2023/08/04 10:07:51;;;;;;;4.28;1.50;;;26.50;99.90;;;;;;6190634;23;20190;-83
2023/08/04 10:10:29;;;;;;;2.90;1.30;;;26.50;99.90;;;;;;6219149;23;20554;-83
2023/08/04 10:13:29;;;;;;;4.32;1.30;;;26.90;99.90;;;;;;6167832;23;20651;-81
2023/08/04 10:16:38;;;;;;;1.73;1.23;;;27.30;99.90;;;;;;6189941;23;20187;-81
2023/08/04 10:19:40;;;;;;;4.47;1.67;;;27.90;99.90;;;;;;6174290;23;20167;-83
2023/08/04 10:22:17;;;;;;;2.30;1.25;;;28.70;99.90;;;;;;6168850;23;20186;-82
2023/08/04 10:24:56;;;;;;;2.58;1.20;;;28.80;99.90;;;;;;6170264;23;20173;-83
2023/08/04 10:27:51;;;;;;;2.33;1.20;;;28.90;99.90;;;;;;6186377;22;20185;-83
2023/08/04 10:31:09;;;;;;;2.13;1.30;;;29.00;99.90;;;;;;6229901;22;20525;-86
2023/08/04 10:34:54;;;;;;;2.22;1.13;;;29.60;99.90;;;;;;6263882;22;20204;-83
2023/08/04 10:38:19;;;;;;;;;;;;;;;;;;;;;
2023/08/04 10:41:50;;;;;;;1.02;0.90;;;28.50;99.90;;;;;;6265236;22;20169;-83
2023/08/04 10:45:20;;;;;;;5.35;1.42;;;27.90;99.90;;;;;;6189532;23;20170;-84
2023/08/04 10:48:40;;;;;;;3.17;1.25;;;27.70;99.90;;;;;;6088109;23;20437;-83
2023/08/04 10:56:38;;;;;;;2.60;1.10;;;28.60;99.90;;;;;;5793338;24;20466;-85
2023/08/04 11:00:02;;;;;;;2.53;1.27;;;29.30;99.90;;;;;;5769637;24;20284;-85
2023/08/04 11:03:28;;;;;;;;;;;;;;;;;;;;;
2023/08/04 11:09:32;;;;;;;;;;;;;;;;;;;;;
2023/08/04 11:12:27;;;;;;;3.33;1.13;;;31.00;99.90;;;;;;6194539;23;20274;-85
2023/08/04 11:15:16;;;;;;;2.00;1.20;;;31.00;99.90;;;;;;6171815;23;20175;-83
2023/08/04 11:17:51;;;;;;;2.83;1.20;;;30.60;98.50;;;;;;6194784;23;20337;-85
2023/08/04 11:20:20;;;;;;;2.75;1.20;;;30.50;99.80;;;;;;6169950;23;20170;-85
2023/08/04 11:23:19;;;;;;;2.58;1.33;;;30.70;98.70;;;;;;6196475;23;20230;-85
2023/08/04 11:26:23;;;;;;;2.03;1.10;;;30.70;98.70;;;;;;6191938;23;20167;-82
2023/08/04 11:29:03;;;;;;;1.95;1.17;;;31.00;97.80;;;;;;6206223;22;20289;-82
2023/08/04 11:31:38;;;;;;;2.35;1.10;;;30.90;97.60;;;;;;6199609;22;20206;-85
2023/08/04 11:34:16;;;;;;;2.60;1.30;;;31.10;96.70;;;;;;6199653;23;20187;-83
2023/08/04 12:08:01;;;;;;;1.92;1.20;;;32.20;92.20;;;;;;6237762;22;20909;-85
2023/08/04 12:10:34;;;;;;;3.28;1.20;;;31.80;92.80;;;;;;6245761;23;20174;-84
2023/08/04 12:13:04;;;;;;;1.75;1.00;;;32.20;91.30;;;;;;6247271;22;20269;-86
2023/08/04 12:15:58;;;;;;;3.05;1.10;;;31.00;91.90;;;;;;6194759;23;20167;-84
2023/08/04 12:19:16;;;;;;;1.65;1.10;;;31.10;92.20;;;;;;6237897;23;20162;-84
2023/08/04 12:21:54;;;;;;;2.20;0.95;;;31.40;92.10;;;;;;6157110;23;20255;-84
2023/08/04 12:24:22;;;;;;;1.45;0.98;;;31.50;91.30;;;;;;6132971;23;20575;-85
2023/08/04 12:26:49;;;;;;;3.63;1.00;;;32.20;91.60;;;;;;6133233;23;20227;-84
2023/08/04 12:29:16;;;;;;;1.95;0.93;;;33.10;89.70;;;;;;6158092;23;20536;-84
2023/08/04 12:31:50;;;;;;;2.40;1.00;;;33.50;87.20;;;;;;6133346;23;20168;-82
2023/08/04 12:34:31;;;;;;;1.98;0.80;;;33.70;85.10;;;;;;6109239;23;20223;-85
2023/08/04 12:37:12;;;;;;;2.05;0.85;;;33.30;84.20;;;;;;6109849;23;20188;-84
2023/08/04 12:39:58;;;;;;;1.33;0.70;;;33.70;84.00;;;;;;6132539;23;20242;-83
2023/08/04 12:42:29;;;;;;;1.10;0.65;;;34.20;81.90;;;;;;6107819;23;20195;-82
2023/08/04 12:44:58;;;;;;;0.90;0.75;;;33.60;81.60;;;;;;6108298;23;20176;-83
2023/08/04 12:47:25;;;;;;;0.98;0.80;;;33.20;82.70;;;;;;6132375;23;20583;-82
2023/08/04 12:49:52;;;;;;;4.85;1.10;;;33.10;84.00;;;;;;6132659;23;20259;-85
2023/08/04 12:52:50;;;;;;;1.48;1.00;;;33.30;83.10;;;;;;6133354;23;20188;-84
2023/08/04 12:55:22;;;;;;;2.63;0.85;;;33.40;80.50;;;;;;6109254;23;20251;-83
2023/08/04 12:57:49;;;;;;;2.58;1.00;;;33.20;79.40;;;;;;6141889;23;20193;-82
2023/08/04 13:00:19;;;;;;;2.45;0.90;;;33.70;78.70;;;;;;6249529;23;20196;-82
2023/08/04 13:02:50;;;;;;;1.80;0.80;;;33.60;79.50;;;;;;6226149;23;20209;-82
2023/08/04 13:05:17;;;;;;;2.38;0.88;;;33.80;77.50;;;;;;6251084;23;20166;-82
2023/08/04 13:07:47;;;;;;;3.83;1.10;;;32.20;78.80;;;;;;6246979;22;20197;-84
2023/08/04 13:10:14;;;;;;;1.90;0.82;;;32.00;82.10;;;;;;6195153;23;20171;-83
2023/08/04 13:12:41;;;;;;;2.60;1.05;;;33.00;83.00;;;;;;6195745;23;20269;-83
2023/08/04 13:15:09;;;;;;;2.17;0.80;;;33.10;79.30;;;;;;6221462;23;20183;-84
2023/08/04 13:17:36;;;;;;;1.85;0.80;;;32.80;78.40;;;;;;6221680;23;20175;-84
2023/08/04 13:20:10;;;;;;;1.98;0.88;;;32.30;78.70;;;;;;6194923;23;20171;-84
2023/08/04 13:22:40;;;;;;;1.50;0.82;;;32.70;78.50;;;;;;6195710;23;20179;-83
2023/08/04 13:25:12;;;;;;;1.88;0.73;;;33.00;77.80;;;;;;6194717;23;20177;-83
2023/08/04 13:27:39;;;;;;;1.95;0.60;;;33.30;79.20;;;;;;6221817;23;20285;-83
2023/08/04 13:30:08;;;;;;;0.80;0.60;;;33.10;74.10;;;;;;6195088;23;20174;-82
2023/08/04 13:32:36;;;;;;;1.48;0.75;;;32.20;74.60;;;;;;6221699;23;20207;-84
2023/08/04 13:35:27;;;;;;;;;;;;;;;;;;;;;
2023/08/04 13:38:11;;;;;;;1.40;0.70;;;32.80;73.20;;;;;;6194399;23;20187;-85
2023/08/04 13:40:43;;;;;;;2.92;0.80;;;32.90;73.20;;;;;;6221428;23;20143;-85
2023/08/04 13:43:10;;;;;;;3.00;0.68;;;33.60;71.60;;;;;;6221714;23;20437;-84
2023/08/04 13:45:37;;;;;;;1.67;0.75;;;33.90;71.50;;;;;;6195797;23;20159;-84
2023/08/04 13:48:14;;;;;;;0.90;0.70;;;33.70;72.30;;;;;;6221242;23;20191;-86
2023/08/04 13:51:11;;;;;;;1.60;0.65;;;33.70;71.40;;;;;;6169322;23;20171;-85
2023/08/04 13:53:55;;;;;;;3.75;0.80;;;33.50;71.80;;;;;;6128825;23;20207;-85
2023/08/04 13:59:38;;;;;;;1.52;0.50;;;34.00;69.30;;;;;;6238549;22;20646;-84
2023/08/04 14:02:06;;;;;;;1.42;0.60;;;33.60;70.20;;;;;;6205768;22;20306;-84
2023/08/04 14:04:37;;;;;;;2.28;0.85;;;33.40;70.10;;;;;;6282686;22;20146;-84
2023/08/04 14:07:05;;;;;;;1.13;0.60;;;32.80;71.00;;;;;;6256182;22;20184;-87
2023/08/04 14:09:39;;;;;;;1.40;0.73;;;32.20;72.60;;;;;;6255609;22;20161;-86
2023/08/04 14:12:07;;;;;;;1.35;0.80;;;31.80;73.40;;;;;;6231131;22;20192;-86
2023/08/04 14:14:35;;;;;;;2.33;0.80;;;31.70;74.80;;;;;;6256320;22;20185;-85
2023/08/04 14:17:03;;;;;;;2.20;0.80;;;31.20;75.70;;;;;;6282400;22;20264;-85
2023/08/04 14:19:33;;;;;;;2.00;0.80;;;31.10;75.30;;;;;;6254850;22;20169;-85
2023/08/04 14:22:00;;;;;;;1.50;0.82;;;31.10;76.00;;;;;;6255737;22;20284;-83
2023/08/04 14:24:28;;;;;;;2.95;1.10;;;30.70;77.00;;;;;;6230501;22;20305;-84
2023/08/04 14:26:55;;;;;;;1.92;0.80;;;30.80;77.70;;;;;;6229584;22;20260;-84
2023/08/04 14:29:22;;;;;;;1.83;0.73;;;30.90;78.70;;;;;;6254797;22;20182;-83
2023/08/04 14:31:49;;;;;;;3.38;0.70;;;30.80;78.60;;;;;;6255063;22;20169;-82
2023/08/04 14:34:17;;;;;;;1.70;0.90;;;30.40;78.10;;;;;;6254998;22;20190;-85
2023/08/04 14:36:45;;;;;;;1.42;0.70;;;29.80;79.50;;;;;;6254934;22;20176;-85
2023/08/04 14:39:12;;;;;;;2.20;0.90;;;29.60;80.00;;;;;;6282270;22;20237;-86
2023/08/04 14:41:39;;;;;;;3.78;0.98;;;29.40;79.90;;;;;;6283744;22;20421;-86
2023/08/04 16:27:45;;;;;;;3.78;1.73;;;25.80;99.10;;;;;;6231763;22;20193;-82
2023/08/04 16:42:41;;;;;;;3.55;1.60;;;25.60;99.60;;;;;;6186056;23;20188;-84
2023/08/04 16:45:09;;;;;;;3.35;1.75;;;25.40;99.90;;;;;;6136359;23;20188;-83
2023/08/04 16:47:38;;;;;;;6.10;1.92;;;25.30;99.90;;;;;;6162010;23;20184;-83
2023/08/04 16:50:29;;;;;;;4.82;1.67;;;25.30;99.90;;;;;;6112908;23;20180;-83
2023/08/04 16:53:32;;;;;;;4.97;1.75;;;25.30;99.90;;;;;;6129099;23;20571;-85
2023/08/04 16:56:56;;;;;;;3.95;1.80;;;25.40;99.90;;;;;;6212738;22;20229;-83
2023/08/04 17:00:16;;;;;;;5.00;1.67;;;25.10;99.90;;;;;;6054563;23;20166;-84
2023/08/04 17:15:40;;;;;;;3.30;1.90;;;24.80;99.90;;;;;;6279860;22;20626;-84
2023/08/04 17:18:14;;;;;;;4.95;2.00;;;24.80;99.90;;;;;;6256451;22;20560;-83
2023/08/04 17:20:59;;;;;;;4.78;2.08;;;24.80;99.90;;;;;;6281544;22;20161;-85
2023/08/04 17:23:40;;;;;;;7.53;2.20;;;24.70;99.90;;;;;;6281254;22;20227;-85
2023/08/04 17:26:18;;;;;;;3.25;1.92;;;24.80;99.90;;;;;;6258036;22;20241;-85
2023/08/04 17:29:22;;;;;;;5.60;2.20;;;24.60;99.90;;;;;;6256638;22;20191;-89
2023/08/04 17:35:54;;;;;;;3.13;2.00;;;24.50;99.90;;;;;;6244930;22;20202;-90
2023/08/04 17:42:45;;;;;;;;;;;;;;;;;;;;;
2023/08/04 17:45:48;;;;;;;4.13;2.13;;;24.50;99.90;;;;;;6307631;22;20408;-85
2023/08/04 17:48:35;;;;;;;4.70;2.40;;;24.30;99.90;;;;;;6264249;22;20197;-87
2023/08/04 17:51:21;;;;;;;4.13;2.10;;;24.30;99.90;;;;;;6287136;22;20256;-89
2023/08/04 17:54:28;;;;;;;4.05;2.00;;;24.30;99.90;;;;;;6262773;22;20212;-85
2023/08/04 17:57:14;;;;;;;5.88;2.00;;;24.20;99.90;;;;;;6262108;22;20193;-86
2023/08/04 18:00:00;;;;;;;5.93;2.13;;;24.20;99.90;;;;;;6302848;22;20197;-88
2023/08/04 18:02:56;;;;;;;6.40;1.77;;;24.10;99.90;;;;;;6219347;22;20189;-88
2023/08/04 18:24:19;;;;;;;5.57;2.00;;;23.80;99.90;;;;;;6249335;22;20556;-87
2023/08/04 19:14:53;;;;;;;4.97;2.20;;;23.20;99.90;;;;;;6269359;22;20557;-89
2023/08/04 19:23:24;;;;;;;6.57;2.80;;;23.10;99.90;;;;;;6273214;22;20210;-84
